Time;durP1;ratioP1;P1;durP2;ratioP2;P2;SDS_P1;SDS_P2;PMS_P1;PMS_P2;Temp;Humidity;BMP_temperature;BMP_pressure;BME280_temperature;BME280_humidity;BME280_pressure;Samples;Min_cycle;Max_cycle;Signal;HPM_P1;HPM_P2
2021/01/09 00:01:06;;;;;;;2.53;0.63;;;24.50;65.10;;;;;;5071627;28;20024;-55
2021/01/09 00:03:33;;;;;;;1.05;0.63;;;24.50;65.60;;;;;;5070845;28;20119;-61
2021/01/09 00:06:03;;;;;;;1.48;0.77;;;24.50;65.50;;;;;;5071306;28;20478;-61
2021/01/09 00:08:31;;;;;;;1.42;0.77;;;24.50;65.40;;;;;;5066307;28;20475;-57
2021/01/09 00:10:58;;;;;;;3.75;0.68;;;24.50;64.90;;;;;;5071523;28;20032;-65
2021/01/09 00:13:25;;;;;;;1.10;0.57;;;24.60;63.70;;;;;;5070116;28;20514;-61
2021/01/09 00:15:53;;;;;;;5.47;0.90;;;24.60;64.10;;;;;;5071295;28;20056;-59
2021/01/09 00:18:20;;;;;;;2.88;0.93;;;24.70;63.90;;;;;;5066847;28;20028;-64
2021/01/09 00:20:48;;;;;;;2.50;0.90;;;24.60;65.20;;;;;;5069394;28;20064;-61
2021/01/09 00:23:15;;;;;;;3.53;0.85;;;24.60;64.00;;;;;;5069862;28;20467;-61
2021/01/09 00:25:42;;;;;;;1.75;0.73;;;24.60;65.60;;;;;;5070694;28;20024;-63
2021/01/09 00:28:10;;;;;;;1.92;0.63;;;24.70;65.40;;;;;;5068638;28;20020;-65
2021/01/09 00:30:37;;;;;;;2.78;0.65;;;24.70;65.60;;;;;;5068709;28;20119;-66
2021/01/09 00:33:04;;;;;;;1.98;1.00;;;24.70;65.30;;;;;;5069590;28;20789;-57
2021/01/09 00:35:32;;;;;;;1.70;0.60;;;24.80;65.40;;;;;;5071203;28;20025;-63
2021/01/09 00:37:59;;;;;;;1.70;0.70;;;24.90;64.20;;;;;;5070937;28;20040;-62
2021/01/09 00:40:26;;;;;;;5.55;0.95;;;24.90;65.00;;;;;;5066739;28;20124;-56
2021/01/09 00:42:54;;;;;;;1.83;0.75;;;24.90;65.00;;;;;;5069956;28;20047;-62
2021/01/09 00:45:21;;;;;;;1.80;0.70;;;24.90;64.90;;;;;;5071370;28;20158;-62
2021/01/09 00:47:49;;;;;;;1.73;0.68;;;25.10;63.90;;;;;;5071272;28;20021;-54
2021/01/09 00:50:16;;;;;;;1.67;0.65;;;25.20;64.40;;;;;;5065215;28;20060;-62
2021/01/09 00:52:43;;;;;;;2.42;0.57;;;25.20;64.10;;;;;;5070329;28;20431;-61
2021/01/09 00:55:13;;;;;;;2.90;0.55;;;25.20;64.00;;;;;;5070767;28;20098;-61
2021/01/09 00:57:41;;;;;;;3.50;0.50;;;25.30;62.90;;;;;;5071003;28;20021;-66
2021/01/09 01:00:09;;;;;;;1.63;0.77;;;25.40;63.90;;;;;;5065962;28;20013;-61
2021/01/09 01:02:36;;;;;;;1.30;0.43;;;25.40;63.90;;;;;;5070263;28;20134;-67
2021/01/09 01:05:04;;;;;;;1.65;0.65;;;25.50;62.90;;;;;;5069456;28;20017;-64
2021/01/09 01:07:34;;;;;;;1.80;0.60;;;25.50;63.10;;;;;;5070698;28;20032;-62
2021/01/09 01:10:06;;;;;;;2.05;0.60;;;25.60;63.20;;;;;;5065410;28;20028;-54
2021/01/09 01:12:34;;;;;;;1.48;0.50;;;25.60;62.00;;;;;;5070008;28;20195;-65
2021/01/09 01:15:01;;;;;;;1.63;0.70;;;25.60;62.80;;;;;;5071213;28;20021;-63
2021/01/09 01:17:28;;;;;;;1.13;0.50;;;25.60;61.60;;;;;;5067272;28;20446;-59
2021/01/09 01:19:56;;;;;;;2.45;0.70;;;25.70;62.70;;;;;;5061893;28;20417;-62
2021/01/09 01:22:24;;;;;;;2.25;0.63;;;25.70;61.70;;;;;;5063705;28;20387;-62
2021/01/09 01:24:51;;;;;;;2.38;0.70;;;25.70;62.20;;;;;;5068797;28;20032;-64
2021/01/09 01:27:18;;;;;;;2.45;0.90;;;25.70;61.50;;;;;;5071513;28;20024;-64
2021/01/09 01:29:46;;;;;;;2.60;0.80;;;25.70;63.10;;;;;;5069125;28;20392;-63
2021/01/09 01:32:13;;;;;;;5.30;0.60;;;25.70;63.20;;;;;;5070051;28;20032;-64
2021/01/09 01:34:41;;;;;;;4.43;0.65;;;25.70;62.70;;;;;;5068317;28;20455;-61
2021/01/09 01:37:09;;;;;;;1.67;0.77;;;25.70;63.30;;;;;;5068184;28;20029;-63
2021/01/09 01:39:37;;;;;;;1.60;0.60;;;25.70;62.70;;;;;;5068724;28;20120;-62
2021/01/09 01:42:04;;;;;;;1.38;0.50;;;25.60;63.20;;;;;;5071556;28;20368;-63
2021/01/09 01:44:32;;;;;;;1.90;0.47;;;25.60;62.80;;;;;;5073090;28;20074;-62
2021/01/09 01:47:02;;;;;;;1.27;0.47;;;25.70;62.40;;;;;;5075516;28;20028;-65
2021/01/09 01:49:30;;;;;;;1.05;0.60;;;25.70;63.50;;;;;;5075274;28;20020;-64
2021/01/09 01:51:58;;;;;;;1.45;0.60;;;25.70;62.30;;;;;;5075074;28;20135;-64
2021/01/09 01:54:25;;;;;;;1.90;0.90;;;25.70;63.00;;;;;;5075542;28;20111;-62
2021/01/09 01:56:54;;;;;;;1.70;0.77;;;25.80;62.90;;;;;;5075595;28;20017;-64
2021/01/09 01:59:22;;;;;;;2.42;1.40;;;25.70;64.00;;;;;;5075431;28;20103;-64
2021/01/09 02:01:51;;;;;;;3.45;1.70;;;25.80;63.50;;;;;;5075259;28;20532;-64
2021/01/09 02:04:19;;;;;;;5.93;1.45;;;25.80;62.20;;;;;;5075290;28;20059;-65
2021/01/09 02:06:48;;;;;;;2.15;1.42;;;25.80;62.00;;;;;;5075327;28;20028;-64
2021/01/09 02:09:24;;;;;;;4.30;1.83;;;25.80;61.50;;;;;;5075038;28;20032;-65
2021/01/09 02:12:00;;;;;;;4.65;1.48;;;25.90;62.30;;;;;;5075116;28;20036;-62
2021/01/09 02:14:48;;;;;;;3.17;1.30;;;25.90;62.00;;;;;;5073856;28;20493;-62
2021/01/09 02:17:17;;;;;;;3.00;1.73;;;25.90;62.90;;;;;;5075010;28;20081;-65
2021/01/09 02:19:45;;;;;;;4.03;1.33;;;26.00;63.30;;;;;;5074833;28;20078;-65
2021/01/09 02:22:19;;;;;;;3.38;1.42;;;26.00;63.00;;;;;;5074832;28;20079;-64
2021/01/09 02:24:47;;;;;;;5.93;1.23;;;25.90;61.50;;;;;;5068702;28;20123;-61
2021/01/09 02:27:15;;;;;;;3.53;1.35;;;25.90;63.30;;;;;;5069556;28;20402;-61
2021/01/09 02:30:06;;;;;;;3.38;1.60;;;26.00;60.70;;;;;;5062444;28;20040;-68
2021/01/09 02:33:03;;;;;;;4.85;1.20;;;26.00;63.70;;;;;;5071406;28;20357;-63
2021/01/09 02:35:34;;;;;;;2.00;1.10;;;26.00;61.90;;;;;;5072051;28;20070;-63
2021/01/09 02:38:02;;;;;;;2.53;1.10;;;26.10;62.70;;;;;;5070221;28;20032;-57
2021/01/09 02:40:29;;;;;;;2.22;1.15;;;26.10;63.20;;;;;;5070839;28;21962;-63
2021/01/09 02:42:57;;;;;;;2.47;1.20;;;26.10;62.60;;;;;;5070431;28;20031;-63
2021/01/09 02:45:24;;;;;;;1.70;0.90;;;26.20;60.80;;;;;;5070074;28;20459;-68
2021/01/09 02:47:51;;;;;;;1.65;0.82;;;26.20;63.40;;;;;;5070995;28;20028;-61
2021/01/09 02:50:19;;;;;;;1.42;0.73;;;26.20;63.40;;;;;;5072899;28;20044;-58
2021/01/09 02:52:46;;;;;;;2.80;0.98;;;26.20;63.20;;;;;;5066426;28;20466;-60
2021/01/09 02:55:15;;;;;;;1.63;0.93;;;26.20;63.10;;;;;;5071209;28;20020;-59
2021/01/09 02:57:42;;;;;;;1.92;0.65;;;26.20;64.00;;;;;;5073013;28;20044;-60
2021/01/09 03:00:10;;;;;;;2.85;1.02;;;26.20;63.80;;;;;;5068907;28;20217;-61
2021/01/09 03:02:38;;;;;;;1.27;0.85;;;26.20;61.30;;;;;;5067360;28;20135;-53
2021/01/09 03:05:05;;;;;;;9.68;7.28;;;26.20;63.00;;;;;;5071763;28;20082;-67
2021/01/09 03:07:33;;;;;;;18.73;3.33;;;26.30;61.80;;;;;;5072875;28;20035;-61
2021/01/09 03:10:00;;;;;;;5.40;1.58;;;26.30;63.10;;;;;;5072604;28;20090;-69
2021/01/09 03:12:28;;;;;;;5.20;3.40;;;26.40;62.50;;;;;;5068169;28;20034;-56
2021/01/09 03:14:55;;;;;;;3.08;2.00;;;26.40;62.90;;;;;;5071410;28;20020;-60
2021/01/09 03:17:24;;;;;;;6.35;3.25;;;26.40;60.60;;;;;;5072585;28;20085;-53
2021/01/09 03:19:51;;;;;;;10.07;7.78;;;26.50;61.90;;;;;;5070755;28;20378;-59
2021/01/09 03:22:19;;;;;;;5.50;4.90;;;26.60;62.10;;;;;;5066745;28;20450;-63
2021/01/09 03:24:46;;;;;;;5.15;3.60;;;26.60;61.10;;;;;;5071938;28;20078;-51
2021/01/09 03:27:14;;;;;;;8.65;6.07;;;26.50;61.20;;;;;;5072252;28;20029;-59
2021/01/09 03:29:41;;;;;;;11.07;8.02;;;26.50;60.10;;;;;;5067328;28;20029;-54
2021/01/09 03:32:08;;;;;;;7.97;5.22;;;26.50;59.60;;;;;;5066797;28;20120;-59
2021/01/09 03:34:36;;;;;;;7.63;5.57;;;26.60;60.90;;;;;;5071709;28;20364;-67
2021/01/09 03:37:03;;;;;;;9.60;5.35;;;26.60;57.50;;;;;;5071349;28;20039;-63
2021/01/09 03:39:31;;;;;;;10.52;9.05;;;26.60;57.80;;;;;;5071814;28;20368;-59
2021/01/09 03:41:58;;;;;;;11.75;10.65;;;26.60;57.70;;;;;;5068840;28;20040;-59
2021/01/09 03:44:25;;;;;;;6.70;6.00;;;26.60;59.00;;;;;;5070421;28;20108;-52
2021/01/09 03:46:57;;;;;;;5.88;4.82;;;26.60;60.70;;;;;;5070793;28;20139;-52
2021/01/09 03:49:24;;;;;;;6.13;4.13;;;26.60;59.30;;;;;;5071149;28;20431;-60
2021/01/09 03:51:51;;;;;;;18.10;14.25;;;26.50;59.50;;;;;;5067330;28;20494;-53
2021/01/09 03:54:19;;;;;;;8.82;4.70;;;26.60;59.40;;;;;;5071525;28;20036;-55
2021/01/09 03:56:50;;;;;;;11.48;3.83;;;26.60;60.30;;;;;;5070934;28;20032;-51
2021/01/09 03:59:17;;;;;;;5.00;2.45;;;26.60;60.80;;;;;;5068962;28;20024;-65
2021/01/09 04:01:45;;;;;;;12.43;2.55;;;26.70;59.50;;;;;;5068144;28;20544;-51
2021/01/09 04:04:15;;;;;;;12.40;2.72;;;26.70;61.80;;;;;;5070472;28;20062;-54
2021/01/09 04:06:42;;;;;;;9.35;2.55;;;26.70;61.20;;;;;;5069802;28;20394;-58
2021/01/09 04:09:10;;;;;;;8.73;1.67;;;26.60;61.00;;;;;;5071573;28;20037;-53
2021/01/09 04:11:37;;;;;;;4.63;1.30;;;26.70;61.50;;;;;;5070473;28;20090;-54
2021/01/09 04:14:04;;;;;;;8.73;1.90;;;26.70;58.90;;;;;;5068353;28;20629;-54
2021/01/09 04:16:38;;;;;;;3.33;1.48;;;26.60;57.90;;;;;;5070602;28;20051;-52
2021/01/09 04:19:06;;;;;;;4.80;1.40;;;26.70;59.50;;;;;;5070971;28;20017;-54
2021/01/09 04:21:42;;;;;;;13.57;1.15;;;26.70;59.50;;;;;;5070637;28;20052;-54
2021/01/09 04:24:10;;;;;;;4.75;1.15;;;26.70;59.00;;;;;;5068870;28;20368;-46
2021/01/09 04:26:37;;;;;;;7.72;1.38;;;26.70;59.00;;;;;;5069991;28;20037;-51
2021/01/09 04:29:05;;;;;;;3.08;1.10;;;26.70;61.20;;;;;;5071476;28;20115;-56
2021/01/09 04:31:32;;;;;;;3.03;1.10;;;26.70;60.40;;;;;;5070369;28;20036;-54
2021/01/09 04:34:03;;;;;;;9.30;2.38;;;26.80;59.20;;;;;;5068555;28;20040;-66
2021/01/09 04:36:30;;;;;;;16.77;13.40;;;26.80;60.00;;;;;;5072493;28;20036;-66
2021/01/09 04:38:58;;;;;;;25.10;16.90;;;26.70;58.90;;;;;;5072484;28;20031;-70
2021/01/09 04:41:26;;;;;;;7.18;6.38;;;26.80;59.70;;;;;;5071932;28;20104;-62
2021/01/09 04:43:54;;;;;;;6.25;5.35;;;26.70;59.80;;;;;;5072198;28;20021;-64
2021/01/09 04:46:23;;;;;;;14.20;6.85;;;26.70;58.90;;;;;;5072370;28;20099;-63
2021/01/09 04:48:51;;;;;;;12.88;11.05;;;26.70;60.60;;;;;;5072416;28;20028;-61
2021/01/09 04:51:19;;;;;;;25.63;22.92;;;26.70;58.50;;;;;;5072117;28;20036;-61
2021/01/09 04:53:47;;;;;;;11.43;8.30;;;26.70;59.20;;;;;;5072363;28;20020;-64
2021/01/09 04:56:15;;;;;;;8.05;6.22;;;26.60;59.10;;;;;;5072220;28;20032;-54
2021/01/09 04:58:42;;;;;;;9.38;8.38;;;26.60;59.70;;;;;;5072225;28;20025;-53
2021/01/09 05:01:13;;;;;;;14.10;10.38;;;26.60;58.90;;;;;;5068071;28;20033;-62
2021/01/09 05:03:40;;;;;;;16.73;14.20;;;26.60;59.10;;;;;;5071540;28;20120;-67
2021/01/09 05:06:08;;;;;;;17.83;14.25;;;26.60;60.40;;;;;;5071755;28;20031;-62
2021/01/09 05:08:35;;;;;;;12.65;9.75;;;26.70;63.40;;;;;;5071953;28;20440;-69
2021/01/09 05:11:04;;;;;;;9.20;3.42;;;26.70;61.70;;;;;;5071342;28;20036;-67
2021/01/09 05:13:31;;;;;;;15.95;9.57;;;26.60;59.90;;;;;;5069911;28;20466;-70
2021/01/09 05:15:59;;;;;;;7.22;5.78;;;26.60;61.50;;;;;;5070395;28;20126;-70
2021/01/09 05:18:26;;;;;;;11.30;6.07;;;26.60;61.00;;;;;;5071677;28;20029;-69
2021/01/09 05:20:58;;;;;;;6.40;5.78;;;26.60;60.00;;;;;;5071595;28;20068;-66
2021/01/09 05:23:26;;;;;;;9.52;4.55;;;26.60;60.10;;;;;;5071698;28;20021;-58
2021/01/09 05:25:54;;;;;;;8.02;3.75;;;26.60;62.30;;;;;;5071854;28;20452;-62
2021/01/09 05:28:22;;;;;;;2.97;2.45;;;26.60;59.60;;;;;;5071800;28;20458;-69
2021/01/09 05:30:49;;;;;;;3.60;2.13;;;26.60;60.80;;;;;;5071570;28;20131;-57
2021/01/09 05:33:17;;;;;;;5.25;2.40;;;26.60;61.60;;;;;;5071815;28;20027;-59
2021/01/09 05:35:49;;;;;;;13.10;2.00;;;26.50;60.20;;;;;;5071131;28;20029;-61
2021/01/09 05:38:30;;;;;;;8.77;1.38;;;26.50;60.10;;;;;;5071669;28;20028;-56
2021/01/09 05:41:05;;;;;;;3.57;1.50;;;26.50;59.60;;;;;;5071827;28;20025;-56
2021/01/09 05:43:32;;;;;;;1.98;1.15;;;26.50;58.80;;;;;;5071457;28;20364;-68
2021/01/09 05:46:04;;;;;;;10.57;1.45;;;26.50;59.60;;;;;;5070705;28;20024;-57
2021/01/09 05:48:31;;;;;;;;;;;26.50;60.80;;;;;;5072588;28;20024;-56
2021/01/09 05:51:04;;;;;;;16.58;2.08;;;26.50;62.30;;;;;;5068701;28;19912;-59
2021/01/09 05:53:45;;;;;;;8.70;1.17;;;26.50;62.00;;;;;;5069836;28;20028;-61
2021/01/09 05:56:17;;;;;;;17.40;1.97;;;26.60;60.10;;;;;;5071237;28;20033;-54
2021/01/09 05:58:46;;;;;;;8.05;1.92;;;26.60;61.20;;;;;;5071169;28;20644;-51
2021/01/09 06:01:14;;;;;;;7.68;1.10;;;26.50;60.00;;;;;;5071121;28;20491;-67
2021/01/09 06:03:45;;;;;;;11.82;1.30;;;26.50;62.30;;;;;;5066032;28;20031;-49
2021/01/09 06:06:30;;;;;;;4.45;0.98;;;26.50;61.40;;;;;;5071297;28;20190;-64
2021/01/09 06:09:09;;;;;;;6.43;0.90;;;26.50;61.50;;;;;;5071988;28;20037;-52
2021/01/09 06:11:43;;;;;;;11.85;0.98;;;26.50;60.60;;;;;;5058446;28;20036;-63
2021/01/09 06:14:12;;;;;;;5.72;0.82;;;26.50;61.00;;;;;;5051823;28;20025;-59
2021/01/09 06:16:42;;;;;;;13.48;1.75;;;26.50;61.90;;;;;;5051190;28;20108;-71
2021/01/09 06:19:10;;;;;;;6.43;1.15;;;26.50;62.60;;;;;;5051530;28;20033;-66
2021/01/09 06:21:38;;;;;;;6.85;1.02;;;26.50;61.50;;;;;;5051053;28;20067;-61
2021/01/09 06:24:07;;;;;;;11.93;0.75;;;26.50;61.10;;;;;;5051308;28;20436;-56
2021/01/09 06:26:34;;;;;;;14.10;1.60;;;26.50;62.70;;;;;;5058234;28;20052;-50
2021/01/09 06:29:26;;;;;;;7.43;1.02;;;26.50;62.20;;;;;;5069165;28;20094;-51
2021/01/09 06:31:57;;;;;;;4.95;1.02;;;26.40;61.30;;;;;;5072181;28;20032;-57
2021/01/09 06:34:30;;;;;;;8.70;0.90;;;26.30;60.80;;;;;;5071177;28;20340;-54
2021/01/09 06:37:00;;;;;;;11.30;1.15;;;26.30;62.60;;;;;;5071877;28;20470;-57
2021/01/09 06:39:33;;;;;;;7.05;0.98;;;26.30;61.10;;;;;;5071323;28;20225;-53
2021/01/09 06:42:04;;;;;;;14.07;1.02;;;26.30;61.90;;;;;;5072048;28;20029;-49
2021/01/09 06:44:32;;;;;;;3.90;1.10;;;26.30;62.50;;;;;;5068510;28;20432;-60
2021/01/09 06:47:00;;;;;;;11.35;1.15;;;26.20;63.00;;;;;;5071761;28;20047;-59
2021/01/09 06:49:27;;;;;;;6.30;0.63;;;26.30;64.00;;;;;;5070613;28;20033;-52
2021/01/09 06:52:02;;;;;;;4.47;0.70;;;26.20;63.30;;;;;;5072384;28;20148;-54
2021/01/09 06:54:39;;;;;;;10.77;0.70;;;26.20;60.80;;;;;;5068405;28;20155;-59
2021/01/09 06:57:07;;;;;;;2.55;0.63;;;26.10;61.20;;;;;;5072948;28;20024;-56
2021/01/09 06:59:38;;;;;;;8.95;0.75;;;26.10;62.40;;;;;;5072135;28;20056;-59
2021/01/09 07:02:25;;;;;;;11.30;1.40;;;26.10;60.90;;;;;;5072022;28;20059;-52
2021/01/09 07:04:55;;;;;;;12.68;0.95;;;26.00;60.40;;;;;;5066560;28;20116;-55
2021/01/09 07:07:37;;;;;;;5.05;0.85;;;26.10;60.50;;;;;;5071764;28;20096;-59
2021/01/09 07:10:05;;;;;;;7.45;0.90;;;26.00;61.30;;;;;;5069605;28;20440;-57
2021/01/09 07:12:34;;;;;;;5.85;0.98;;;26.00;61.90;;;;;;5072285;28;20032;-58
2021/01/09 07:15:07;;;;;;;8.88;1.20;;;26.00;62.60;;;;;;5065962;28;20021;-66
2021/01/09 07:17:40;;;;;;;8.55;0.93;;;26.00;61.20;;;;;;5071835;28;20028;-63
2021/01/09 07:20:10;;;;;;;4.57;0.80;;;26.00;62.90;;;;;;5072099;28;20049;-63
2021/01/09 07:22:41;;;;;;;4.95;0.90;;;25.90;62.30;;;;;;5072232;28;20048;-61
2021/01/09 07:25:12;;;;;;;12.13;1.05;;;25.90;63.50;;;;;;5064983;28;20063;-56
2021/01/09 07:27:45;;;;;;;8.05;0.80;;;25.90;64.30;;;;;;5070843;28;20028;-61
2021/01/09 07:30:18;;;;;;;5.40;1.10;;;25.80;63.30;;;;;;5068845;28;20028;-66
2021/01/09 07:32:48;;;;;;;9.63;1.25;;;25.70;63.10;;;;;;5070222;28;20025;-61
2021/01/09 07:35:28;;;;;;;6.78;1.00;;;25.70;62.80;;;;;;5064030;28;20035;-65
2021/01/09 07:38:04;;;;;;;5.57;0.70;;;25.70;63.00;;;;;;5071155;28;20366;-60
2021/01/09 07:40:49;;;;;;;11.27;0.60;;;25.70;64.10;;;;;;5071472;28;20063;-64
2021/01/09 07:43:44;;;;;;;8.73;0.95;;;25.60;65.20;;;;;;5067970;28;20024;-62
2021/01/09 07:46:28;;;;;;;5.72;0.60;;;25.60;64.40;;;;;;5069820;28;20030;-64
2021/01/09 07:48:59;;;;;;;4.72;0.90;;;25.60;65.00;;;;;;5070757;28;20028;-64
2021/01/09 07:51:49;;;;;;;6.28;0.88;;;25.60;64.70;;;;;;5071024;28;20143;-63
2021/01/09 07:54:43;;;;;;;9.77;1.10;;;25.60;64.70;;;;;;5066704;28;20074;-57
2021/01/09 07:57:21;;;;;;;2.70;1.00;;;25.60;65.20;;;;;;5070236;28;20032;-62
2021/01/09 07:59:55;;;;;;;4.78;0.75;;;25.50;64.40;;;;;;5069918;28;20024;-58
2021/01/09 08:02:27;;;;;;;8.20;1.17;;;25.50;64.70;;;;;;5071278;28;20379;-60
2021/01/09 08:05:20;;;;;;;;;;;25.50;65.30;;;;;;5066241;28;20082;-66
2021/01/09 08:07:57;;;;;;;2.05;0.80;;;25.40;65.10;;;;;;5070927;28;19905;-67
2021/01/09 08:10:31;;;;;;;1.25;0.50;;;25.40;65.40;;;;;;5070085;28;20039;-63
2021/01/09 08:13:00;;;;;;;5.00;0.45;;;25.40;65.70;;;;;;5071010;28;20055;-61
2021/01/09 08:15:29;;;;;;;3.22;0.60;;;25.40;65.60;;;;;;5065064;28;20487;-62
2021/01/09 08:18:00;;;;;;;4.82;0.70;;;25.30;66.50;;;;;;5071259;28;20024;-65
2021/01/09 08:20:28;;;;;;;3.33;0.75;;;25.30;65.80;;;;;;5071039;28;20475;-64
2021/01/09 08:23:01;;;;;;;11.80;1.20;;;25.20;65.70;;;;;;5070223;28;20103;-62
2021/01/09 08:25:34;;;;;;;3.45;1.05;;;25.20;65.70;;;;;;5064797;28;20013;-57
2021/01/09 08:28:03;;;;;;;2.53;0.98;;;25.20;65.70;;;;;;5070584;28;20029;-64
2021/01/09 08:30:33;;;;;;;3.83;0.80;;;25.10;65.80;;;;;;5069802;28;20543;-62
2021/01/09 08:33:16;;;;;;;3.22;0.50;;;25.10;66.20;;;;;;5070760;28;20094;-54
2021/01/09 08:35:53;;;;;;;3.65;0.73;;;25.10;66.60;;;;;;5065673;28;20078;-59
2021/01/09 08:38:28;;;;;;;3.92;1.50;;;25.00;66.80;;;;;;5070667;28;20044;-56
2021/01/09 08:40:59;;;;;;;1.70;0.60;;;25.00;66.50;;;;;;5071419;28;20021;-59
2021/01/09 08:43:26;;;;;;;2.58;0.80;;;25.00;66.50;;;;;;5070195;28;20089;-63
2021/01/09 08:45:57;;;;;;;2.30;0.73;;;25.00;66.80;;;;;;5065257;28;20518;-54
2021/01/09 08:48:29;;;;;;;1.80;0.35;;;24.90;66.90;;;;;;5068155;28;20498;-59
2021/01/09 08:50:58;;;;;;;;;;;24.90;66.80;;;;;;5068359;28;20119;-59
2021/01/09 08:53:28;;;;;;;1.10;0.52;;;24.90;67.00;;;;;;5068407;28;19962;-62
2021/01/09 08:56:04;;;;;;;1.80;0.52;;;24.90;67.00;;;;;;5064276;28;20032;-61
2021/01/09 08:58:33;;;;;;;2.88;1.10;;;24.80;67.00;;;;;;5068107;28;20021;-62
2021/01/09 09:01:11;;;;;;;1.20;0.60;;;24.90;67.30;;;;;;5068402;28;20495;-67
2021/01/09 09:03:52;;;;;;;3.95;1.42;;;24.80;67.30;;;;;;5067490;28;20060;-63
2021/01/09 09:06:23;;;;;;;3.53;0.70;;;24.80;67.30;;;;;;5065665;28;20467;-63
2021/01/09 09:08:53;;;;;;;1.73;0.68;;;24.80;67.50;;;;;;5068349;28;20482;-63
2021/01/09 09:11:25;;;;;;;1.77;0.65;;;24.70;67.60;;;;;;5067098;28;20380;-56
2021/01/09 09:14:10;;;;;;;2.50;0.68;;;24.70;67.90;;;;;;5066174;28;20039;-56
2021/01/09 09:16:39;;;;;;;1.42;0.60;;;24.70;67.80;;;;;;5066852;28;20025;-62
2021/01/09 09:19:14;;;;;;;3.55;1.00;;;24.70;67.80;;;;;;5069949;28;20024;-63
2021/01/09 09:21:44;;;;;;;5.38;0.77;;;24.70;68.00;;;;;;5065234;28;20048;-56
2021/01/09 09:24:12;;;;;;;1.08;0.68;;;24.70;68.10;;;;;;5065214;28;20041;-60
2021/01/09 09:26:42;;;;;;;2.70;0.60;;;24.60;68.10;;;;;;5067884;28;21269;-53
2021/01/09 09:29:10;;;;;;;1.85;0.60;;;24.60;68.00;;;;;;5069425;28;20029;-56
2021/01/09 09:31:44;;;;;;;1.38;0.65;;;24.60;68.30;;;;;;5070871;28;20123;-57
2021/01/09 09:34:17;;;;;;;2.22;0.65;;;24.50;68.00;;;;;;5065673;28;20028;-56
2021/01/09 09:36:51;;;;;;;1.77;0.60;;;24.50;68.20;;;;;;5068754;28;20020;-55
2021/01/09 09:39:19;;;;;;;2.03;0.80;;;24.50;68.20;;;;;;5067493;28;20023;-55
2021/01/09 09:41:53;;;;;;;2.30;0.68;;;24.50;69.00;;;;;;5068176;28;20375;-53
2021/01/09 09:44:32;;;;;;;3.38;0.55;;;24.50;68.10;;;;;;5062461;28;20048;-60
2021/01/09 09:47:01;;;;;;;2.55;0.85;;;24.50;68.40;;;;;;5066514;28;20419;-64
2021/01/09 09:49:28;;;;;;;1.33;0.50;;;24.40;68.50;;;;;;5068020;28;20017;-66
2021/01/09 09:51:56;;;;;;;2.00;0.50;;;24.40;68.50;;;;;;5066056;28;20090;-62
2021/01/09 09:54:31;;;;;;;1.75;0.50;;;24.40;69.20;;;;;;5064230;28;20029;-59
2021/01/09 09:56:59;;;;;;;2.95;0.75;;;24.40;68.60;;;;;;5067662;28;20383;-65
2021/01/09 09:59:31;;;;;;;1.48;0.50;;;24.40;68.90;;;;;;5069204;28;20017;-67
2021/01/09 10:02:02;;;;;;;1.60;0.60;;;24.40;69.00;;;;;;5069482;28;20025;-62
2021/01/09 10:04:29;;;;;;;1.48;0.80;;;24.30;69.50;;;;;;5065233;28;20036;-59
2021/01/09 10:06:57;;;;;;;1.38;0.60;;;24.30;69.10;;;;;;5072815;28;20131;-61
2021/01/09 10:09:26;;;;;;;1.75;0.52;;;24.30;69.30;;;;;;5074351;28;20104;-67
2021/01/09 10:11:54;;;;;;;2.67;0.73;;;24.30;69.30;;;;;;5074039;28;20043;-59
2021/01/09 10:14:22;;;;;;;1.70;0.80;;;24.30;69.40;;;;;;5068849;28;20039;-60
2021/01/09 10:16:50;;;;;;;1.17;0.52;;;24.20;69.50;;;;;;5073029;28;20029;-61
2021/01/09 10:19:18;;;;;;;1.20;0.50;;;24.30;69.60;;;;;;5073883;28;20043;-56
2021/01/09 10:21:45;;;;;;;1.80;0.70;;;24.20;69.60;;;;;;5073802;28;20047;-61
2021/01/09 10:24:13;;;;;;;2.17;0.50;;;24.20;69.40;;;;;;5068104;28;20402;-51
2021/01/09 10:26:40;;;;;;;2.25;0.90;;;24.20;69.80;;;;;;5073005;28;20028;-58
2021/01/09 10:29:08;;;;;;;1.25;0.65;;;24.20;69.90;;;;;;5073516;28;20025;-66
2021/01/09 10:31:37;;;;;;;1.65;0.70;;;24.10;69.80;;;;;;5074004;28;20047;-60
2021/01/09 10:34:07;;;;;;;3.55;0.80;;;24.10;70.10;;;;;;5069060;28;20024;-60
2021/01/09 10:36:39;;;;;;;2.47;0.60;;;24.10;70.10;;;;;;5072033;28;20483;-65
2021/01/09 10:39:10;;;;;;;1.42;0.30;;;24.10;70.20;;;;;;5073602;28;20035;-64
2021/01/09 10:41:39;;;;;;;2.90;0.50;;;24.10;70.20;;;;;;5073533;28;20037;-60
2021/01/09 10:44:07;;;;;;;1.20;0.70;;;24.10;70.20;;;;;;5068408;28;20509;-62
2021/01/09 10:46:34;;;;;;;1.73;0.63;;;24.10;70.30;;;;;;5072157;28;20029;-62
2021/01/09 10:49:02;;;;;;;1.60;0.43;;;24.10;70.30;;;;;;5073213;28;20426;-63
2021/01/09 10:51:29;;;;;;;2.38;0.70;;;24.10;70.40;;;;;;5071428;28;20394;-61
2021/01/09 10:53:57;;;;;;;1.70;0.68;;;24.10;70.40;;;;;;5070489;28;20036;-62
2021/01/09 10:56:24;;;;;;;3.63;0.70;;;24.10;70.40;;;;;;5070736;28;20082;-60
2021/01/09 10:58:52;;;;;;;1.98;0.60;;;24.10;70.40;;;;;;5073326;28;20025;-61
2021/01/09 11:01:21;;;;;;;2.85;1.27;;;24.10;70.50;;;;;;5073269;28;20356;-59
2021/01/09 11:03:49;;;;;;;1.35;0.50;;;24.00;70.50;;;;;;5070387;28;20048;-56
2021/01/09 11:06:23;;;;;;;1.00;0.43;;;24.00;70.50;;;;;;5069820;28;20029;-63
2021/01/09 11:08:50;;;;;;;2.85;0.80;;;24.10;70.70;;;;;;5072701;28;20040;-64
2021/01/09 11:11:20;;;;;;;2.03;0.77;;;24.00;70.50;;;;;;5073604;28;20045;-65
2021/01/09 11:13:48;;;;;;;0.90;0.50;;;24.00;70.50;;;;;;5069607;28;20032;-63
2021/01/09 11:16:23;;;;;;;1.73;0.60;;;24.00;70.70;;;;;;5068740;28;20059;-66
2021/01/09 11:18:51;;;;;;;2.08;0.80;;;24.00;70.60;;;;;;5073110;28;20025;-69
2021/01/09 11:21:20;;;;;;;3.17;0.52;;;24.00;70.80;;;;;;5071979;28;20133;-63
2021/01/09 11:23:48;;;;;;;7.25;0.80;;;24.00;70.70;;;;;;5069864;28;20483;-66
2021/01/09 11:26:23;;;;;;;2.22;0.65;;;24.00;70.90;;;;;;5066461;28;20044;-62
2021/01/09 11:28:52;;;;;;;1.67;0.60;;;24.00;70.60;;;;;;5072042;28;20036;-67
2021/01/09 11:31:23;;;;;;;0.98;0.28;;;23.90;70.70;;;;;;5072333;28;20505;-63
2021/01/09 11:33:51;;;;;;;1.08;0.32;;;23.90;70.90;;;;;;5070026;28;20028;-68
2021/01/09 11:36:19;;;;;;;1.40;0.60;;;23.90;70.80;;;;;;5068560;28;20025;-64
2021/01/09 11:38:47;;;;;;;1.15;0.57;;;23.90;70.90;;;;;;5072007;28;20495;-60
2021/01/09 11:41:16;;;;;;;1.10;0.63;;;23.90;70.80;;;;;;5072659;28;20086;-62
2021/01/09 11:43:44;;;;;;;2.22;0.45;;;23.90;70.90;;;;;;5069451;28;20356;-61
2021/01/09 11:46:12;;;;;;;1.65;0.60;;;23.90;71.00;;;;;;5069427;28;20032;-61
2021/01/09 11:48:43;;;;;;;1.77;0.50;;;23.90;71.00;;;;;;5072477;28;20027;-68
2021/01/09 11:51:11;;;;;;;5.88;0.60;;;23.90;71.10;;;;;;5070664;28;20052;-65
2021/01/09 11:53:38;;;;;;;1.92;0.70;;;23.90;70.90;;;;;;5069116;28;20500;-59
2021/01/09 11:56:06;;;;;;;2.38;0.50;;;23.90;70.90;;;;;;5068014;28;20058;-57
2021/01/09 11:58:33;;;;;;;1.67;0.55;;;23.80;70.80;;;;;;5071648;28;20028;-57
2021/01/09 12:01:01;;;;;;;1.30;0.60;;;23.90;70.90;;;;;;5072052;28;20380;-55
2021/01/09 12:03:28;;;;;;;1.55;0.55;;;23.80;71.10;;;;;;5070497;28;20108;-57
2021/01/09 12:05:55;;;;;;;2.60;0.80;;;23.80;71.10;;;;;;5065365;28;20029;-60
2021/01/09 12:08:23;;;;;;;2.80;0.60;;;23.80;71.10;;;;;;5071920;28;20115;-57
2021/01/09 12:10:50;;;;;;;0.98;0.47;;;23.80;71.00;;;;;;5071367;28;20021;-56
2021/01/09 12:13:17;;;;;;;1.05;0.40;;;23.80;71.10;;;;;;5072380;28;20028;-57
2021/01/09 12:15:48;;;;;;;3.55;0.68;;;23.80;71.10;;;;;;5065578;28;20029;-62
2021/01/09 12:18:24;;;;;;;1.88;0.75;;;23.80;71.30;;;;;;5071441;28;20440;-61
2021/01/09 12:20:51;;;;;;;2.28;0.77;;;23.80;71.20;;;;;;5070736;28;20059;-58
2021/01/09 12:23:19;;;;;;;2.03;0.50;;;23.80;71.20;;;;;;5071735;28;20028;-58
2021/01/09 12:25:47;;;;;;;2.72;0.60;;;23.80;71.10;;;;;;5064030;28;20112;-63
2021/01/09 12:28:16;;;;;;;2.15;0.68;;;23.80;71.30;;;;;;5070757;28;20036;-62
2021/01/09 12:30:43;;;;;;;2.78;0.57;;;23.80;71.10;;;;;;5071289;28;20032;-61
2021/01/09 12:33:10;;;;;;;2.13;0.73;;;23.80;71.40;;;;;;5071232;28;20020;-63
2021/01/09 12:35:38;;;;;;;1.73;0.68;;;23.80;71.40;;;;;;5064119;28;20031;-65
2021/01/09 12:38:05;;;;;;;2.13;0.65;;;23.80;71.40;;;;;;5071058;28;20352;-61
2021/01/09 12:40:33;;;;;;;1.42;0.45;;;23.80;71.40;;;;;;5071109;28;20028;-66
2021/01/09 12:43:00;;;;;;;0.82;0.30;;;23.70;71.40;;;;;;5071678;28;20174;-60
2021/01/09 12:45:27;;;;;;;1.40;0.90;;;23.70;71.40;;;;;;5063094;28;20031;-67
2021/01/09 12:47:55;;;;;;;1.70;0.52;;;23.70;71.50;;;;;;5071175;28;20036;-62
2021/01/09 12:50:22;;;;;;;2.80;0.85;;;23.70;71.50;;;;;;5071971;28;20440;-68
2021/01/09 12:52:49;;;;;;;1.02;0.60;;;23.70;71.40;;;;;;5070946;28;20107;-61
2021/01/09 12:55:17;;;;;;;1.25;0.50;;;23.70;71.40;;;;;;5072468;28;20378;-67
2021/01/09 12:57:44;;;;;;;2.92;0.73;;;23.70;71.50;;;;;;5072364;28;20062;-66
2021/01/09 13:00:12;;;;;;;3.53;0.70;;;23.70;71.60;;;;;;5072668;28;20054;-66